Huvudsida
METAR-TAF:

METAR-TAF

Flygplatser :

Fairbanks International Airport

Fairbanks, Alaska, USA

latitud: 64-48-14N, longitud: 147-52-34W, höjd: 132 m

Aktuellt väderrapport

Denna rapport gjordes för 42 minuter sedan, klockan 20:53 UTC
Vind 3 kt från väst/sydväst
Temperatur -34°C
Fuktighet 67%
Tryck 1003 hPa
Sikt: 16.1 km
Få moln på en höjd av 7500 ft
Spridda moln på en höjd av 10000 ft
Brutna moln på en höjd av 12000 ft

METAR: PAFA 192053Z 25003KT 10SM FEW075 SCT100 BKN120 M34/M38 A2963 RMK AO2 SLP057 VIS LWR NE-SE T13391383 55001

Tid: 12:35 (21:35 UTC)

Väderprognos

Denna rapport gjordes för 3 timmar och 55 minuter sedan, klockan 17:40 UTC
Prognos gäller från 19 kl. 18 UTC till 20 kl. 24 UTC
Vind kt från nord
Sikt: 10 km
Få moln på en höjd av 12000 ft

TAF: PAFA 191740Z 1918/2024 00000KT P6SM FEW120

Aktuella väderrapporter och prognoser från 4000 flygplatser (METAR- och TAF-rapporter).

De tillgängliga stationerna syns som gula och röda prickar på kartan.

För musen över prickarna för att se namnen på stationerna.

Klicka sedan för att få väderrapporter och prognoser.

För att ändra kartan: Klicka på de gröna knapparna med ett svart kors på för att zooma in; den gröna knappen med ett streck på för att zooma ut; eller på de gröna pilarna för angränsande kartor.


METAR-TAF: